Time;durP1;ratioP1;P1;durP2;ratioP2;P2;SDS_P1;SDS_P2;PMS_P1;PMS_P2;Temp;Humidity;BMP_temperature;BMP_pressure;BME280_temperature;BME280_humidity;BME280_pressure;Samples;Min_cycle;Max_cycle;Signal;HPM_P1;HPM_P2
2021/12/06 00:01:40;;;;;;;31.48;19.55;;;;;;;1.57;81.78;101004.79;1745807;82;21126;-76
2021/12/06 00:04:21;;;;;;;29.67;18.70;;;;;;;1.51;81.84;100998.80;1745886;82;22219;-76
2021/12/06 00:06:49;;;;;;;28.00;16.60;;;;;;;1.54;81.87;101008.98;1742319;81;21095;-76
2021/12/06 00:09:19;;;;;;;23.77;15.23;;;;;;;1.54;81.91;101016.77;1777834;80;21069;-76
2021/12/06 00:11:46;;;;;;;22.70;14.50;;;;;;;1.53;81.95;101009.77;1745571;81;21040;-76
2021/12/06 00:14:13;;;;;;;18.57;13.22;;;;;;;1.52;81.95;101018.73;1739188;81;21074;-77
2021/12/06 00:16:39;;;;;;;22.15;14.38;;;;;;;1.53;81.99;101013.66;1778237;80;22492;-76
2021/12/06 00:19:06;;;;;;;19.42;11.95;;;;;;;1.44;81.97;101003.08;1745814;82;21141;-76
2021/12/06 00:21:33;;;;;;;20.32;12.65;;;;;;;1.49;81.86;101028.53;1777829;80;21073;-76
2021/12/06 00:24:00;;;;;;;19.40;12.18;;;;;;;1.40;81.72;101033.11;1750403;81;21090;-76
2021/12/06 00:26:27;;;;;;;22.98;15.10;;;;;;;1.28;81.82;101018.05;1757367;80;21114;-76
2021/12/06 00:28:57;;;;;;;18.65;12.55;;;;;;;1.22;82.01;101021.13;1757242;81;21777;-76
2021/12/06 00:31:22;;;;;;;23.22;14.58;;;;;;;1.16;82.63;101013.84;1756731;81;21075;-76
2021/12/06 00:33:56;;;;;;;20.08;13.15;;;;;;;1.07;82.81;101013.59;1737333;82;21144;-76
2021/12/06 00:36:26;;;;;;;21.52;13.22;;;;;;;1.03;82.69;101014.19;1756987;81;21109;-76
2021/12/06 00:38:46;;;;;;;15.43;11.80;;;;;;;0.96;82.62;101007.31;1756282;81;21069;-76
2021/12/06 00:41:13;;;;;;;18.87;12.60;;;;;;;0.93;82.69;101018.75;1756927;81;22619;-76
2021/12/06 00:43:39;;;;;;;18.23;11.10;;;;;;;0.89;83.39;101027.12;1757189;81;21066;-76
2021/12/06 00:46:06;;;;;;;16.35;10.93;;;;;;;0.87;83.64;101023.53;1756973;80;21109;-76
2021/12/06 00:48:33;;;;;;;17.90;11.57;;;;;;;0.82;83.68;101030.08;1738003;82;21069;-76
2021/12/06 00:51:00;;;;;;;14.38;10.65;;;;;;;0.80;83.55;101023.90;1757800;80;21081;-76
2021/12/06 00:53:26;;;;;;;17.35;11.85;;;;;;;0.78;83.60;101040.63;1758083;80;21788;-76
2021/12/06 00:55:53;;;;;;;16.57;11.45;;;;;;;0.78;83.77;101026.38;1737722;82;21583;-76
2021/12/06 00:58:20;;;;;;;15.70;11.45;;;;;;;0.78;83.78;101027.67;1742053;81;21082;-75
2021/12/06 01:00:49;;;;;;;17.70;12.23;;;;;;;0.81;83.94;101029.59;1757204;81;21623;-76
2021/12/06 01:03:20;;;;;;;19.15;12.20;;;;;;;0.84;83.90;101030.19;1738261;82;21138;-75
2021/12/06 01:05:46;;;;;;;18.87;12.55;;;;;;;0.88;83.90;101036.08;1738104;82;21808;-76
2021/12/06 01:08:13;;;;;;;19.80;13.53;;;;;;;0.90;83.90;101031.89;1738094;82;21066;-76
2021/12/06 01:10:43;;;;;;;19.20;12.78;;;;;;;0.91;83.81;101035.89;1757919;80;21192;-76
2021/12/06 01:13:09;;;;;;;19.05;13.05;;;;;;;0.95;83.88;101037.00;1757384;80;21114;-76
2021/12/06 01:15:37;;;;;;;21.85;13.95;;;;;;;0.90;83.89;101023.75;1757481;80;21038;-76
2021/12/06 01:18:05;;;;;;;20.77;14.18;;;;;;;1.03;83.71;101040.11;1757163;80;21787;-76
2021/12/06 01:20:34;;;;;;;17.23;12.33;;;;;;;1.05;83.70;101039.81;1738215;82;21069;-76
2021/12/06 01:23:04;;;;;;;21.20;14.40;;;;;;;1.08;83.62;101040.03;1757942;80;21321;-76
2021/12/06 01:33:33;;;;;;;19.60;12.65;;;;;;;1.11;83.26;101035.95;1721701;83;21055;-76
2021/12/06 01:41:05;;;;;;;23.83;15.35;;;;;;;1.12;83.14;101039.44;1745700;81;21070;-77
2021/12/06 01:43:32;;;;;;;24.32;15.98;;;;;;;1.12;83.19;101037.73;1745921;81;21770;-75
2021/12/06 01:46:02;;;;;;;23.52;17.07;;;;;;;1.11;83.15;101029.88;1777421;80;21132;-76
2021/12/06 01:48:27;;;;;;;29.15;18.82;;;;;;;1.09;83.11;101034.03;1776661;80;21112;-76
2021/12/06 01:50:54;;;;;;;28.65;19.25;;;;;;;1.10;83.02;101025.48;1745586;81;21042;-75
2021/12/06 01:53:20;;;;;;;30.30;18.12;;;;;;;1.09;83.03;101030.15;1777774;80;21067;-75
2021/12/06 01:55:47;;;;;;;30.35;18.65;;;;;;;1.11;83.01;101028.19;1777977;80;21787;-75
2021/12/06 01:58:14;;;;;;;30.75;18.20;;;;;;;1.10;82.86;101026.77;1745662;80;21337;-75
2021/12/06 02:00:50;;;;;;;30.77;18.52;;;;;;;1.10;82.94;101017.70;1745775;81;21090;-75
2021/12/06 02:03:17;;;;;;;28.17;17.73;;;;;;;1.11;82.87;101023.41;1746277;81;22202;-75
2021/12/06 02:05:45;;;;;;;27.35;17.20;;;;;;;1.10;82.90;101019.00;1778411;80;21051;-75
2021/12/06 02:08:12;;;;;;;31.00;17.15;;;;;;;1.11;82.79;101016.92;1725102;82;21780;-75
2021/12/06 02:10:39;;;;;;;30.43;16.87;;;;;;;1.11;82.83;101019.11;1745961;80;21062;-75
2021/12/06 02:13:07;;;;;;;28.77;16.75;;;;;;;1.12;82.76;101018.30;1778128;80;21090;-75
2021/12/06 02:18:08;;;;;;;27.40;16.87;;;;;;;1.07;82.62;101009.34;1745616;81;21556;-75
2021/12/06 02:20:36;;;;;;;28.27;16.93;;;;;;;1.03;82.63;101003.41;1724241;82;23094;-75
2021/12/06 02:23:00;;;;;;;29.07;15.68;;;;;;;1.04;82.69;101018.19;1745311;80;21070;-75
2021/12/06 02:25:26;;;;;;;27.75;17.82;;;;;;;1.04;82.75;101016.89;1759457;80;21615;-75
2021/12/06 02:27:53;;;;;;;25.32;16.82;;;;;;;1.06;82.75;101015.70;1753774;81;21380;-76
2021/12/06 02:30:20;;;;;;;28.40;16.52;;;;;;;1.07;82.68;101017.48;1753611;81;21376;-75
2021/12/06 02:32:47;;;;;;;25.45;16.17;;;;;;;1.07;82.72;101026.56;1753887;81;23080;-76
2021/12/06 02:35:18;;;;;;;26.02;15.80;;;;;;;0.99;82.67;101005.72;1754098;81;21110;-76
2021/12/06 02:37:45;;;;;;;24.05;14.75;;;;;;;1.08;82.68;101025.38;1754283;81;21383;-76
2021/12/06 02:40:24;;;;;;;22.85;14.75;;;;;;;1.08;82.60;101027.97;1754197;80;21075;-76
2021/12/06 02:42:51;;;;;;;25.25;15.55;;;;;;;1.10;82.67;101031.96;1754218;81;21106;-75
2021/12/06 02:45:19;;;;;;;24.50;15.72;;;;;;;1.11;82.62;101032.48;1753964;81;22407;-76
2021/12/06 02:47:53;;;;;;;25.32;15.10;;;;;;;1.10;82.67;101031.55;1734248;81;21162;-76
2021/12/06 02:50:18;;;;;;;27.58;15.83;;;;;;;1.14;82.71;101049.52;1753809;81;21093;-76
2021/12/06 02:52:44;;;;;;;22.73;14.50;;;;;;;1.15;82.59;101046.14;1754433;81;21090;-76
2021/12/06 02:55:29;;;;;;;24.27;14.73;;;;;;;1.15;82.57;101044.44;1754533;81;21081;-76
2021/12/06 02:57:45;;;;;;;23.65;14.55;;;;;;;1.16;82.46;101051.44;1752023;81;21797;-76
2021/12/06 03:00:10;;;;;;;23.07;14.80;;;;;;;1.16;82.38;101049.22;1753706;81;21058;-76
2021/12/06 03:02:37;;;;;;;21.40;13.50;;;;;;;1.16;82.40;101050.52;1754169;81;21563;-76
2021/12/06 03:05:05;;;;;;;21.97;14.95;;;;;;;1.22;82.48;101070.77;1753885;80;21038;-76
2021/12/06 03:07:36;;;;;;;24.63;15.00;;;;;;;1.23;82.36;101060.51;1754217;81;21070;-76
2021/12/06 03:10:00;;;;;;;24.67;14.60;;;;;;;1.22;82.32;101069.10;1747137;80;21800;-76
2021/12/06 03:12:27;;;;;;;23.35;12.78;;;;;;;1.23;82.27;101059.21;1754216;81;21094;-76
2021/12/06 03:14:57;;;;;;;23.02;13.18;;;;;;;1.25;82.27;101060.62;1754475;81;21555;-76
2021/12/06 03:17:29;;;;;;;16.70;10.63;;;;;;;1.27;82.21;101063.80;1754474;81;21556;-76
2021/12/06 03:19:57;;;;;;;17.50;10.38;;;;;;;1.27;82.04;101053.84;1754709;81;21068;-77
2021/12/06 03:22:23;;;;;;;18.02;10.70;;;;;;;1.24;81.91;101055.84;1735376;81;21770;-75
2021/12/06 03:24:50;;;;;;;19.77;11.30;;;;;;;1.25;82.01;101060.62;1754154;80;21122;-75
2021/12/06 03:27:20;;;;;;;20.95;11.15;;;;;;;1.28;82.00;101061.72;1754330;80;21535;-75
2021/12/06 03:29:46;;;;;;;15.48;10.53;;;;;;;1.32;81.99;101066.31;1753790;81;21455;-76
2021/12/06 03:32:13;;;;;;;16.02;10.63;;;;;;;1.30;81.71;101065.31;1754114;80;21066;-76
2021/12/06 03:34:42;;;;;;;17.30;10.53;;;;;;;1.28;81.72;101066.91;1754451;81;21752;-75
2021/12/06 03:37:09;;;;;;;18.07;11.35;;;;;;;1.27;81.69;101081.06;1754266;81;21659;-75
2021/12/06 03:39:39;;;;;;;15.58;10.00;;;;;;;1.26;81.68;101076.66;1754484;81;21007;-75
2021/12/06 03:42:09;;;;;;;18.73;11.18;;;;;;;1.28;81.71;101068.61;1754537;81;21062;-75
2021/12/06 03:44:39;;;;;;;16.42;10.75;;;;;;;1.26;81.67;101076.66;1754327;81;21004;-76
2021/12/06 03:47:12;;;;;;;17.57;10.65;;;;;;;1.24;81.66;101084.36;1753594;81;21796;-76
2021/12/06 03:49:42;;;;;;;16.37;10.43;;;;;;;1.24;81.59;101086.03;1754436;81;21477;-75
2021/12/06 03:52:08;;;;;;;18.05;10.25;;;;;;;1.21;81.56;101091.92;1754644;81;21086;-75
2021/12/06 03:54:35;;;;;;;17.77;10.30;;;;;;;1.20;81.48;101092.70;1754759;81;21047;-75
2021/12/06 03:57:02;;;;;;;16.05;10.63;;;;;;;1.16;81.49;101092.92;1754351;81;21070;-75
2021/12/06 03:59:28;;;;;;;18.23;11.33;;;;;;;1.18;81.54;101093.00;1754412;81;21742;-75
2021/12/06 04:01:57;;;;;;;17.60;10.93;;;;;;;1.21;81.56;101100.11;1747236;81;21054;-75
2021/12/06 04:04:23;;;;;;;18.85;11.35;;;;;;;1.19;81.46;101094.81;1753923;81;21079;-75
2021/12/06 04:06:50;;;;;;;19.87;11.50;;;;;;;1.16;81.37;101102.38;1754171;81;21655;-75
2021/12/06 04:09:16;;;;;;;23.00;12.18;;;;;;;1.14;81.40;101102.26;1754484;81;21046;-75
2021/12/06 04:11:44;;;;;;;17.90;9.93;;;;;;;1.12;81.37;101107.73;1754673;81;21771;-75
2021/12/06 04:14:12;;;;;;;11.50;7.22;;;;;;;1.13;81.33;101113.84;1747385;81;21078;-75
2021/12/06 04:16:39;;;;;;;13.32;7.28;;;;;;;1.13;81.26;101113.84;1754837;81;21058;-74
2021/12/06 04:19:06;;;;;;;7.67;5.53;;;;;;;1.12;81.15;101113.33;1754567;81;21055;-75
2021/12/06 04:21:34;;;;;;;7.03;5.20;;;;;;;1.08;80.92;101110.92;1747268;81;21081;-75
2021/12/06 04:24:01;;;;;;;7.28;5.00;;;;;;;1.06;80.88;101123.29;1754431;81;21757;-75
2021/12/06 04:26:28;;;;;;;7.12;5.08;;;;;;;1.01;80.88;101120.77;1754121;80;21465;-75
2021/12/06 04:29:01;;;;;;;9.00;6.03;;;;;;;0.95;80.86;101142.87;1754403;80;21070;-75
2021/12/06 04:31:32;;;;;;;10.53;5.87;;;;;;;0.90;80.85;101135.19;1754269;81;21040;-75
2021/12/06 04:33:59;;;;;;;9.20;5.25;;;;;;;0.88;80.93;101139.38;1753933;81;21075;-75
2021/12/06 04:36:26;;;;;;;7.33;5.60;;;;;;;0.87;82.41;101132.37;1754478;81;22599;-75
2021/12/06 04:38:56;;;;;;;9.03;5.87;;;;;;;0.89;82.98;101132.08;1754465;81;21086;-76
2021/12/06 04:41:21;;;;;;;8.75;5.70;;;;;;;0.88;82.88;101134.56;1753922;81;21126;-75
2021/12/06 04:43:48;;;;;;;7.00;4.80;;;;;;;0.85;82.87;101132.67;1754342;80;21677;-75
2021/12/06 04:46:14;;;;;;;7.08;4.58;;;;;;;0.86;82.84;101143.92;1754052;81;21129;-76
2021/12/06 04:48:41;;;;;;;8.05;4.58;;;;;;;0.86;82.80;101143.52;1753669;81;21890;-75
2021/12/06 04:51:08;;;;;;;8.20;4.75;;;;;;;0.83;82.77;101139.44;1754294;81;21042;-76
2021/12/06 04:53:36;;;;;;;6.53;4.25;;;;;;;0.82;82.72;101141.51;1734859;81;21161;-76
2021/12/06 04:56:23;;;;;;;7.90;4.60;;;;;;;0.81;82.71;101143.98;1769632;80;21541;-75
2021/12/06 04:59:00;;;;;;;7.72;4.80;;;;;;;0.80;82.63;101142.20;1785025;80;21089;-78
2021/12/06 05:01:29;;;;;;;10.30;5.67;;;;;;;0.81;82.60;101144.91;1764270;80;21769;-77
2021/12/06 05:03:58;;;;;;;7.45;4.42;;;;;;;0.81;82.45;101145.28;1754116;81;21166;-78
2021/12/06 05:06:29;;;;;;;8.68;5.55;;;;;;;0.85;82.20;101140.84;1754438;81;21746;-77
2021/12/06 05:08:59;;;;;;;9.78;5.58;;;;;;;0.86;81.58;101148.70;1749155;81;21582;-77
2021/12/06 05:11:27;;;;;;;6.92;5.12;;;;;;;0.86;81.45;101138.73;1754718;81;21590;-75
2021/12/06 05:13:55;;;;;;;7.95;5.25;;;;;;;0.90;81.22;101151.11;1754628;81;21937;-77
2021/12/06 05:16:21;;;;;;;7.12;4.90;;;;;;;0.90;81.24;101148.52;1749299;81;21110;-76
2021/12/06 05:18:49;;;;;;;8.28;4.72;;;;;;;0.93;81.10;101163.00;1754327;81;21167;-77
2021/12/06 05:21:16;;;;;;;9.23;4.67;;;;;;;0.94;80.77;101154.05;1754368;81;21083;-80
2021/12/06 05:23:43;;;;;;;9.03;4.97;;;;;;;0.93;80.66;101156.12;1754685;81;21091;-79
2021/12/06 05:26:11;;;;;;;14.10;5.50;;;;;;;0.95;80.71;101153.23;1721194;81;21122;-76
2021/12/06 05:28:43;;;;;;;9.83;5.05;;;;;;;0.96;80.47;101155.05;1754371;81;21060;-86
2021/12/06 05:31:14;;;;;;;7.05;4.35;;;;;;;0.99;80.40;101157.34;1754575;80;21071;-85
2021/12/06 05:33:51;;;;;;;10.50;5.45;;;;;;;1.02;80.34;101153.28;1754633;81;21072;-85
2021/12/06 05:36:19;;;;;;;9.98;5.60;;;;;;;1.00;80.07;101155.28;1719557;81;21086;-79
2021/12/06 05:38:45;;;;;;;9.40;6.28;;;;;;;0.97;79.95;101154.64;1754389;81;21872;-77
2021/12/06 05:41:12;;;;;;;8.18;5.83;;;;;;;0.99;79.97;101154.76;1754055;81;21651;-75
2021/12/06 05:43:42;;;;;;;9.75;5.85;;;;;;;1.02;79.98;101157.17;1754272;81;21031;-75
2021/12/06 05:46:09;;;;;;;8.88;5.45;;;;;;;1.02;79.79;101161.06;1696378;81;21578;-76
2021/12/06 05:48:36;;;;;;;8.88;5.30;;;;;;;1.02;79.76;101159.77;1744626;81;21688;-76
2021/12/06 05:51:02;;;;;;;8.60;5.15;;;;;;;1.04;79.72;101162.06;1753967;81;21876;-75
2021/12/06 05:53:32;;;;;;;8.88;4.30;;;;;;;1.03;79.64;101160.66;1753592;80;21009;-76
2021/12/06 05:55:59;;;;;;;6.80;4.42;;;;;;;1.03;79.55;101165.84;1753865;81;21259;-77
2021/12/06 05:58:31;;;;;;;6.17;3.70;;;;;;;1.02;79.49;101167.54;1744599;81;21088;-76
2021/12/06 06:00:58;;;;;;;7.03;4.40;;;;;;;1.02;79.45;101166.24;1754580;80;21085;-75
2021/12/06 06:03:24;;;;;;;10.25;5.20;;;;;;;0.97;79.31;101173.68;1690090;83;21761;-76
2021/12/06 06:05:52;;;;;;;9.43;4.55;;;;;;;0.95;79.36;101173.08;1745897;82;21128;-75
2021/12/06 06:08:18;;;;;;;6.10;4.20;;;;;;;0.91;79.51;101182.73;1722617;83;21106;-75
2021/12/06 06:10:47;;;;;;;10.48;5.28;;;;;;;0.90;79.53;101180.92;1764783;80;21106;-74
2021/12/06 06:13:15;;;;;;;11.35;5.25;;;;;;;0.88;79.58;101182.50;1785208;80;21082;-74
2021/12/06 06:15:42;;;;;;;6.58;4.60;;;;;;;0.87;79.63;101190.69;1785178;80;21764;-74
2021/12/06 06:18:09;;;;;;;8.53;4.62;;;;;;;0.92;79.72;101194.88;1785234;80;21054;-74
2021/12/06 06:20:49;;;;;;;7.25;4.25;;;;;;;0.93;79.66;101196.70;1785278;80;21113;-74
2021/12/06 06:23:16;;;;;;;12.37;5.50;;;;;;;0.94;79.60;101199.81;1785661;80;21164;-74
2021/12/06 06:25:46;;;;;;;9.20;5.05;;;;;;;0.93;79.54;101205.37;1785686;80;21066;-74
2021/12/06 06:28:11;;;;;;;9.68;5.35;;;;;;;0.89;79.45;101207.24;1784806;80;21846;-74
2021/12/06 06:30:38;;;;;;;7.58;4.75;;;;;;;0.91;79.45;101211.25;1785557;80;21034;-74
2021/12/06 06:33:05;;;;;;;6.03;4.40;;;;;;;0.90;79.39;101214.61;1785136;80;21062;-74
2021/12/06 06:35:31;;;;;;;6.72;4.62;;;;;;;0.93;79.43;101220.03;1785605;80;21066;-74
2021/12/06 06:37:58;;;;;;;5.80;4.20;;;;;;;0.92;79.24;101229.50;1785556;80;21077;-74
2021/12/06 06:40:25;;;;;;;8.68;5.12;;;;;;;0.93;79.38;101240.77;1785586;80;21711;-74
2021/12/06 06:42:51;;;;;;;9.65;3.92;;;;;;;0.90;79.32;101226.27;1785564;80;21065;-74
2021/12/06 06:45:20;;;;;;;7.08;4.65;;;;;;;0.91;79.39;101232.88;1785699;80;21046;-74
2021/12/06 06:47:46;;;;;;;9.90;5.67;;;;;;;0.90;79.29;101232.75;1785511;80;21054;-74
2021/12/06 06:50:13;;;;;;;10.53;6.17;;;;;;;0.89;79.27;101234.45;1785376;80;21062;-73
2021/12/06 06:52:40;;;;;;;13.18;6.17;;;;;;;0.88;79.25;101235.64;1750566;80;22002;-74
2021/12/06 06:55:07;;;;;;;11.73;7.08;;;;;;;0.87;79.22;101246.41;1785524;80;21045;-74
2021/12/06 06:57:34;;;;;;;14.40;7.55;;;;;;;0.86;79.28;101255.36;1785363;80;21058;-74
2021/12/06 07:00:00;;;;;;;15.75;8.03;;;;;;;0.86;79.26;101254.95;1785410;80;21078;-74
2021/12/06 07:02:27;;;;;;;12.65;7.08;;;;;;;0.86;79.14;101250.17;1785611;80;21133;-74
2021/12/06 07:04:54;;;;;;;10.60;7.00;;;;;;;0.87;79.13;101255.88;1785505;80;22602;-74
2021/12/06 07:07:20;;;;;;;12.40;7.75;;;;;;;0.87;79.11;101254.19;1785525;80;21065;-74
2021/12/06 07:09:47;;;;;;;10.70;6.10;;;;;;;0.87;79.01;101254.59;1785665;80;21042;-74
2021/12/06 07:12:17;;;;;;;9.35;5.22;;;;;;;0.85;79.03;101259.66;1785342;80;21643;-74
2021/12/06 07:14:43;;;;;;;12.63;5.53;;;;;;;0.81;78.97;101264.48;1785049;80;21337;-74
2021/12/06 07:17:10;;;;;;;33.95;17.30;;;;;;;0.80;79.03;101261.41;1785454;80;21773;-74
2021/12/06 07:19:37;;;;;;;56.50;24.25;;;;;;;0.81;78.90;101260.23;1785438;80;21058;-74
2021/12/06 07:22:04;;;;;;;189.85;91.80;;;;;;;0.80;78.86;101252.34;1785486;80;21105;-73
2021/12/06 07:24:30;;;;;;;147.93;83.82;;;;;;;0.80;78.82;101257.12;1785342;80;21097;-74
2021/12/06 07:26:57;;;;;;;96.08;62.50;;;;;;;0.80;78.84;101257.52;1785172;80;21115;-74
2021/12/06 07:29:24;;;;;;;50.52;32.95;;;;;;;0.78;78.79;101257.41;1785440;80;21863;-74
2021/12/06 07:31:51;;;;;;;15.60;9.78;;;;;;;0.75;78.79;101252.91;1785292;80;21023;-74
2021/12/06 07:34:18;;;;;;;8.35;5.60;;;;;;;0.74;78.81;101248.91;1785542;80;21133;-74
2021/12/06 07:36:45;;;;;;;7.72;5.22;;;;;;;0.76;78.90;101250.81;1785212;80;21074;-74
2021/12/06 07:39:12;;;;;;;13.22;8.15;;;;;;;0.77;78.88;101246.15;1785370;80;21053;-74
2021/12/06 07:41:41;;;;;;;14.70;9.03;;;;;;;0.78;78.79;101244.05;1785484;80;21738;-74
2021/12/06 07:44:07;;;;;;;36.70;24.55;;;;;;;0.78;78.82;101236.67;1784997;80;21592;-74
2021/12/06 07:46:33;;;;;;;20.97;13.68;;;;;;;0.78;78.72;101240.56;1785723;80;21149;-74
2021/12/06 07:49:00;;;;;;;10.48;6.05;;;;;;;0.76;78.58;101236.56;1785468;80;21121;-74
2021/12/06 07:51:27;;;;;;;18.17;10.03;;;;;;;0.77;78.68;101239.67;1785581;80;21066;-74
2021/12/06 07:53:54;;;;;;;17.25;11.20;;;;;;;0.77;78.59;101240.97;1785802;80;21927;-74
2021/12/06 07:56:21;;;;;;;16.65;10.82;;;;;;;0.78;78.55;101237.56;1785637;80;21121;-74
2021/12/06 07:58:47;;;;;;;15.48;10.25;;;;;;;0.80;78.56;101243.27;1785692;80;21081;-74
2021/12/06 08:01:14;;;;;;;9.60;5.92;;;;;;;0.79;78.50;101238.48;1785514;80;21042;-74
2021/12/06 08:03:41;;;;;;;12.88;7.85;;;;;;;0.82;78.47;101245.58;1785623;80;21528;-73
2021/12/06 08:06:08;;;;;;;10.05;8.33;;;;;;;0.82;78.47;101239.09;1785629;80;21735;-74
2021/12/06 08:08:35;;;;;;;51.85;37.83;;;;;;;0.85;78.38;101243.22;1785450;80;21085;-74
2021/12/06 08:11:06;;;;;;;63.35;55.55;;;;;;;0.85;78.22;101247.99;1785559;80;21073;-74
2021/12/06 08:13:34;;;;;;;9.43;7.85;;;;;;;0.83;78.10;101246.98;1785778;80;21388;-74
2021/12/06 08:16:05;;;;;;;10.65;7.62;;;;;;;0.86;78.09;101247.19;1776329;80;22297;-74
2021/12/06 08:18:32;;;;;;;12.28;8.35;;;;;;;0.90;78.08;101245.72;1785302;80;22294;-74
2021/12/06 08:21:00;;;;;;;25.62;22.85;;;;;;;0.95;78.01;101247.84;1785352;80;21066;-74
2021/12/06 08:23:28;;;;;;;14.75;9.60;;;;;;;0.98;77.87;101251.08;1785712;80;21548;-74
2021/12/06 08:25:55;;;;;;;10.65;6.67;;;;;;;1.00;77.87;101252.08;1785482;80;21141;-74
2021/12/06 08:28:23;;;;;;;12.35;8.28;;;;;;;1.04;77.76;101250.61;1785120;80;21089;-74
2021/12/06 08:30:52;;;;;;;12.15;8.20;;;;;;;1.06;77.71;101251.61;1784966;80;21817;-74
2021/12/06 08:33:18;;;;;;;9.50;5.35;;;;;;;1.07;77.58;101244.33;1785028;80;21050;-74
2021/12/06 08:35:46;;;;;;;12.78;7.90;;;;;;;1.05;77.51;101254.61;1785242;80;21054;-74
2021/12/06 08:38:14;;;;;;;8.75;6.10;;;;;;;1.02;77.31;101254.78;1785165;80;21229;-74
2021/12/06 08:40:41;;;;;;;8.40;4.85;;;;;;;0.98;77.30;101264.03;1785259;80;21048;-74
2021/12/06 08:43:09;;;;;;;6.17;3.95;;;;;;;0.97;77.22;101259.63;1785139;80;21687;-74
2021/12/06 08:45:36;;;;;;;7.28;3.98;;;;;;;0.89;76.96;101257.78;1785098;80;21521;-74
2021/12/06 08:48:03;;;;;;;11.90;8.45;;;;;;;0.88;77.11;101260.26;1785180;80;21054;-74
2021/12/06 08:50:30;;;;;;;8.33;5.35;;;;;;;0.83;77.00;101266.42;1785134;80;21544;-74
2021/12/06 08:52:56;;;;;;;7.05;4.37;;;;;;;0.77;77.07;101265.58;1785085;80;21284;-74
2021/12/06 08:55:23;;;;;;;7.12;4.83;;;;;;;0.75;77.20;101269.75;1785121;80;21787;-74
2021/12/06 08:57:50;;;;;;;9.05;6.85;;;;;;;0.79;77.41;101274.77;1753939;80;21122;-74
2021/12/06 09:00:22;;;;;;;7.20;4.72;;;;;;;0.80;77.35;101277.85;1785335;80;21524;-74
2021/12/06 09:02:48;;;;;;;9.40;5.00;;;;;;;0.78;77.33;101275.14;1785418;80;21073;-73
2021/12/06 09:05:15;;;;;;;7.83;4.75;;;;;;;0.75;77.34;101282.71;1785348;80;21101;-74
2021/12/06 09:07:42;;;;;;;9.20;4.40;;;;;;;0.76;77.46;101281.02;1785181;80;21764;-73
2021/12/06 09:10:10;;;;;;;8.73;4.17;;;;;;;0.73;77.46;101281.70;1785114;80;21066;-73
2021/12/06 09:12:37;;;;;;;5.85;3.60;;;;;;;0.68;77.68;101284.75;1785208;80;21415;-74
2021/12/06 09:15:12;;;;;;;5.75;3.42;;;;;;;0.62;77.72;101285.57;1785143;80;21356;-74
2021/12/06 09:17:38;;;;;;;6.20;3.90;;;;;;;0.55;77.92;101291.61;1785093;80;21639;-74
2021/12/06 09:20:07;;;;;;;5.30;3.15;;;;;;;0.48;78.06;101286.75;1785243;80;22453;-74
2021/12/06 09:22:34;;;;;;;4.20;2.85;;;;;;;0.42;79.02;101292.78;1785198;80;21050;-73
2021/12/06 09:25:00;;;;;;;4.70;3.50;;;;;;;0.37;79.14;101292.83;1785272;80;21050;-73
2021/12/06 09:27:27;;;;;;;5.62;3.72;;;;;;;0.38;78.98;101290.36;1787887;80;21058;-73
2021/12/06 09:29:55;;;;;;;7.37;3.62;;;;;;;0.40;78.99;101294.36;1789520;80;21668;-73
2021/12/06 09:32:22;;;;;;;5.25;4.22;;;;;;;0.42;79.05;101290.20;1789102;80;21794;-73
2021/12/06 09:34:49;;;;;;;6.17;3.77;;;;;;;0.47;79.24;101294.41;1788993;80;21073;-73
2021/12/06 09:37:19;;;;;;;6.37;3.35;;;;;;;0.52;79.19;101298.25;1789381;80;21043;-73
2021/12/06 09:39:45;;;;;;;5.40;2.67;;;;;;;0.52;79.17;101304.31;1789398;80;21023;-73
2021/12/06 09:42:11;;;;;;;6.37;3.45;;;;;;;0.47;79.16;101297.00;1789342;80;21552;-73
2021/12/06 09:44:38;;;;;;;4.67;3.10;;;;;;;0.37;80.01;101301.48;1789322;80;21726;-73
2021/12/06 09:47:05;;;;;;;4.70;2.83;;;;;;;0.32;80.29;101297.67;1789356;80;21046;-73
2021/12/06 09:49:31;;;;;;;10.23;2.92;;;;;;;0.29;80.08;101300.43;1789311;79;21049;-73
2021/12/06 09:52:01;;;;;;;5.33;3.27;;;;;;;0.25;80.01;101299.70;1789527;80;21069;-73
2021/12/06 09:54:30;;;;;;;4.92;2.80;;;;;;;0.25;79.88;101300.59;1789304;78;21070;-73
2021/12/06 09:56:58;;;;;;;4.22;3.10;;;;;;;0.21;79.68;101299.86;1789271;80;21748;-73
2021/12/06 09:59:26;;;;;;;4.80;2.92;;;;;;;0.17;79.84;101300.02;1789304;80;21535;-73
2021/12/06 10:01:58;;;;;;;5.35;2.55;;;;;;;0.11;80.74;101308.63;1789369;80;21356;-73
2021/12/06 10:04:27;;;;;;;4.17;3.22;;;;;;;0.08;80.68;101306.19;1789063;80;21124;-73
2021/12/06 10:06:53;;;;;;;5.00;3.30;;;;;;;0.06;80.26;101301.30;1790100;80;21057;-73
2021/12/06 10:09:20;;;;;;;6.00;3.87;;;;;;;0.08;80.22;101298.02;1789414;80;21811;-73
2021/12/06 10:11:47;;;;;;;9.08;4.22;;;;;;;0.09;80.17;101297.63;1789522;80;21062;-73
2021/12/06 10:14:16;;;;;;;9.08;3.85;;;;;;;0.18;80.23;101295.73;1758618;80;21050;-73
2021/12/06 10:16:43;;;;;;;4.85;3.58;;;;;;;0.24;80.23;101304.35;1789354;80;21551;-73
2021/12/06 10:19:10;;;;;;;5.10;3.70;;;;;;;0.31;80.24;101305.33;1789243;80;21050;-73
2021/12/06 10:21:38;;;;;;;6.10;4.08;;;;;;;0.37;80.03;101295.41;1788664;80;21397;-73
2021/12/06 10:24:15;;;;;;;9.28;4.37;;;;;;;0.46;80.27;101299.98;1789205;80;21042;-73
2021/12/06 10:26:41;;;;;;;7.65;4.30;;;;;;;0.48;80.19;101280.28;1788502;80;21030;-73
2021/12/06 10:29:22;;;;;;;10.63;4.70;;;;;;;0.65;79.94;101298.77;1785492;80;21616;-73
2021/12/06 10:31:53;;;;;;;8.28;5.40;;;;;;;0.66;79.63;101289.81;1785499;80;21069;-73
2021/12/06 10:34:24;;;;;;;10.63;5.70;;;;;;;0.66;79.42;101288.92;1785113;80;21735;-73
2021/12/06 10:36:52;;;;;;;12.93;5.97;;;;;;;0.66;79.47;101287.63;1785898;80;21042;-74
2021/12/06 10:39:18;;;;;;;11.18;6.58;;;;;;;0.69;79.51;101286.12;1785570;80;21710;-73
2021/12/06 10:41:52;;;;;;;10.88;6.20;;;;;;;0.73;79.43;101288.55;1785456;80;21035;-74
2021/12/06 10:44:19;;;;;;;;;;;;;;;0.76;79.39;101286.20;1788125;80;21053;-74
2021/12/06 10:46:49;;;;;;;10.58;5.97;;;;;;;0.78;79.32;101286.80;1785489;79;21770;-73
2021/12/06 10:49:24;;;;;;;9.50;5.87;;;;;;;0.82;79.28;101291.81;1785215;79;21202;-73
2021/12/06 10:51:50;;;;;;;8.43;4.40;;;;;;;0.87;79.28;101285.69;1787085;79;21023;-73
2021/12/06 10:54:30;;;;;;;7.33;4.62;;;;;;;0.87;78.64;101283.98;1786758;80;21101;-73
2021/12/06 10:56:52;;;;;;;6.58;4.45;;;;;;;0.80;78.43;101288.62;1785304;79;21109;-73
2021/12/06 10:59:26;;;;;;;8.50;4.50;;;;;;;0.74;78.31;101287.38;1785479;80;21782;-73
2021/12/06 11:02:05;;;;;;;6.22;3.77;;;;;;;0.71;78.24;101295.31;1785303;80;21077;-73
2021/12/06 11:04:31;;;;;;;10.23;4.75;;;;;;;0.67;77.91;101295.89;1785124;79;21089;-73
2021/12/06 11:07:05;;;;;;;6.97;3.98;;;;;;;0.62;77.89;101287.80;1785486;80;21093;-74
2021/12/06 11:09:29;;;;;;;6.40;4.05;;;;;;;0.66;78.02;101296.29;1785905;80;21077;-73
2021/12/06 11:12:00;;;;;;;11.08;4.85;;;;;;;0.66;77.86;101299.28;1785236;80;21828;-73
2021/12/06 11:14:30;;;;;;;14.25;4.62;;;;;;;0.63;77.89;101292.57;1785773;80;21105;-73
2021/12/06 11:17:00;;;;;;;10.30;5.30;;;;;;;0.69;78.10;101286.12;1785647;79;21073;-73
2021/12/06 11:19:29;;;;;;;7.10;4.53;;;;;;;0.77;78.06;101293.20;1785746;80;21087;-73
2021/12/06 11:22:00;;;;;;;6.65;3.90;;;;;;;0.77;77.73;101293.20;1786155;80;21114;-73
2021/12/06 11:24:32;;;;;;;5.80;4.03;;;;;;;0.77;77.62;101298.37;1785342;80;21751;-74
2021/12/06 11:27:11;;;;;;;5.20;3.60;;;;;;;0.75;77.32;101299.55;1786155;80;21047;-72
2021/12/06 11:29:42;;;;;;;8.13;4.22;;;;;;;0.69;77.29;101298.19;1785215;80;21050;-73
2021/12/06 11:32:16;;;;;;;7.40;4.12;;;;;;;0.67;77.32;101303.25;1785878;80;21133;-73
2021/12/06 11:34:52;;;;;;;9.68;4.92;;;;;;;0.68;77.55;101298.59;1785646;80;21065;-73
2021/12/06 11:37:27;;;;;;;7.42;4.42;;;;;;;0.68;77.28;101302.89;1785585;80;22510;-73
2021/12/06 11:40:22;;;;;;;8.20;4.40;;;;;;;0.63;77.00;101299.05;1785582;80;21129;-73
2021/12/06 11:43:08;;;;;;;8.88;4.50;;;;;;;0.63;77.21;101297.75;1785690;80;21057;-74
2021/12/06 11:45:49;;;;;;;5.78;3.95;;;;;;;0.66;77.33;101299.28;1785590;80;21026;-73
2021/12/06 11:48:22;;;;;;;8.33;3.95;;;;;;;0.71;77.37;101300.12;1785544;80;21109;-73